Terminal Aerodrome Forecast
Issued by NWS Louisville, KY

Home | Current Version | Previous Version | Text Only | Print | Product List | Glossary On
Versions: 1 2 3 4 5 6 7 8 9 10 11 12 13 14 15 16
000
FTUS43 KLMK 290538 CCA
TAFSDF
TAF COR
KSDF 290538Z 2906/3012 35010KT P6SM -RA VCTS BKN035CB
      TEMPO 2906/2909 3SM TSRA BKN025CB
     FM290900 20011KT P6SM VCTS FEW020 BKN035CB
     FM291600 18013G23KT P6SM SCT040=

USA.gov is the U.S. government's official web portal to all federal, state and local government web resources and services.